Time;durP1;ratioP1;P1;durP2;ratioP2;P2;SDS_P1;SDS_P2;PMS_P1;PMS_P2;Temp;Humidity;BMP_temperature;BMP_pressure;BME280_temperature;BME280_humidity;BME280_pressure;Samples;Min_cycle;Max_cycle;Signal;HPM_P1;HPM_P2
2022/07/10 00:00:41;;;;;;;11.63;6.25;;;;;;;18.39;80.38;99154.95;1771124;79;21044;-73
2022/07/10 00:03:07;;;;;;;5.92;5.20;;;;;;;18.32;80.53;99148.86;1759302;79;20999;-72
2022/07/10 00:05:35;;;;;;;8.48;5.45;;;;;;;18.31;80.70;99144.52;1754859;81;21116;-74
2022/07/10 00:08:01;;;;;;;6.20;5.58;;;;;;;18.36;80.62;99138.73;1738786;79;21093;-74
2022/07/10 00:10:28;;;;;;;7.47;5.25;;;;;;;18.35;80.62;99149.72;1817419;77;21009;-75
2022/07/10 00:12:55;;;;;;;6.67;5.72;;;;;;;18.27;80.72;99151.72;1817480;77;21026;-75
2022/07/10 00:15:22;;;;;;;5.35;4.83;;;;;;;18.21;81.08;99155.31;1818270;78;21009;-73
2022/07/10 00:17:49;;;;;;;6.95;4.85;;;;;;;18.24;81.24;99164.27;1737788;81;21016;-74
2022/07/10 00:20:16;;;;;;;8.90;5.87;;;;;;;18.33;81.13;99159.89;1743203;81;21248;-75
2022/07/10 00:22:43;;;;;;;6.75;5.28;;;;;;;18.32;81.15;99164.98;1733431;82;21034;-73
2022/07/10 00:25:12;;;;;;;6.12;4.75;;;;;;;18.27;81.07;99163.82;1759051;81;21020;-74
2022/07/10 00:27:39;;;;;;;7.40;5.25;;;;;;;18.24;81.19;99163.46;1736127;81;21081;-74
2022/07/10 00:30:08;;;;;;;6.15;5.03;;;;;;;18.18;81.26;99159.83;1731550;82;21045;-73
2022/07/10 00:32:35;;;;;;;5.45;4.72;;;;;;;18.23;81.10;99159.96;1762079;80;21164;-73
2022/07/10 00:35:02;;;;;;;7.10;4.85;;;;;;;18.26;81.01;99156.80;1715071;83;21045;-73
2022/07/10 00:37:29;;;;;;;7.00;5.45;;;;;;;18.24;81.05;99163.46;1747219;81;21055;-75
2022/07/10 00:39:56;;;;;;;7.25;5.97;;;;;;;18.14;81.04;99160.00;1752154;81;21066;-75
2022/07/10 00:42:22;;;;;;;5.58;5.08;;;;;;;18.04;81.33;99161.08;1751681;81;21128;-75
2022/07/10 00:44:49;;;;;;;7.08;4.95;;;;;;;18.03;81.48;99152.20;1750897;81;21871;-76
2022/07/10 00:47:19;;;;;;;7.55;5.10;;;;;;;18.09;81.42;99147.77;1756907;81;21028;-74
2022/07/10 00:49:44;;;;;;;8.53;5.37;;;;;;;18.06;81.48;99142.88;1719055;83;21085;-75
2022/07/10 00:52:13;;;;;;;8.13;5.45;;;;;;;18.01;81.49;99146.24;1741476;81;21318;-74
2022/07/10 00:54:45;;;;;;;7.70;5.40;;;;;;;17.94;81.56;99143.36;1748893;81;21034;-75
2022/07/10 00:57:14;;;;;;;7.75;5.40;;;;;;;17.93;81.65;99147.92;1733285;81;21918;-74
2022/07/10 00:59:41;;;;;;;7.40;5.10;;;;;;;17.98;81.70;99149.91;1741157;82;21021;-74
2022/07/10 01:02:07;;;;;;;8.35;4.97;;;;;;;17.93;81.84;99155.18;1760877;80;21100;-75
2022/07/10 01:04:34;;;;;;;5.67;5.00;;;;;;;17.87;81.87;99154.23;1741089;82;21011;-74
2022/07/10 01:07:01;;;;;;;5.92;5.25;;;;;;;17.79;81.93;99149.97;1759348;81;21024;-75
2022/07/10 01:09:30;;;;;;;5.53;4.90;;;;;;;17.74;82.12;99153.86;1723541;83;22289;-75
2022/07/10 01:12:01;;;;;;;10.88;6.37;;;;;;;17.77;82.25;99152.57;1749459;81;21065;-75
2022/07/10 01:14:30;;;;;;;7.00;5.50;;;;;;;17.74;82.39;99151.17;1747113;80;21618;-73
2022/07/10 01:16:59;;;;;;;7.15;5.22;;;;;;;17.68;82.58;99142.16;1731675;81;21082;-77
2022/07/10 01:19:26;;;;;;;6.62;5.53;;;;;;;17.65;82.66;99140.45;1761830;80;21084;-78
2022/07/10 01:21:54;;;;;;;6.25;4.60;;;;;;;17.65;82.58;99144.48;1782699;80;21515;-75
2022/07/10 01:24:21;;;;;;;8.23;5.30;;;;;;;17.68;82.48;99150.22;1748401;80;21032;-75
2022/07/10 01:26:47;;;;;;;7.95;4.95;;;;;;;17.62;82.59;99145.77;1755522;80;21071;-77
2022/07/10 01:29:14;;;;;;;6.62;4.60;;;;;;;17.53;82.89;99144.98;1757026;80;21049;-79
2022/07/10 01:31:42;;;;;;;6.92;4.97;;;;;;;17.41;83.06;99137.69;1719116;81;21073;-76
2022/07/10 01:34:11;;;;;;;9.35;5.05;;;;;;;17.41;83.22;99140.37;1752040;80;21114;-78
2022/07/10 01:36:38;;;;;;;6.75;5.20;;;;;;;17.45;83.16;99130.81;1777526;78;21022;-77
2022/07/10 01:39:05;;;;;;;7.08;4.67;;;;;;;17.42;83.29;99124.58;1750898;81;21053;-75
2022/07/10 01:41:32;;;;;;;7.80;5.03;;;;;;;17.37;83.37;99121.75;1792078;78;21083;-76
2022/07/10 01:43:59;;;;;;;6.40;4.45;;;;;;;17.33;83.45;99117.87;1813157;77;21039;-73
2022/07/10 01:46:26;;;;;;;6.75;4.40;;;;;;;17.34;83.41;99114.13;1819371;77;21274;-76
2022/07/10 01:48:53;;;;;;;6.53;4.78;;;;;;;17.38;83.26;99114.50;1820508;78;21036;-76
2022/07/10 01:51:20;;;;;;;5.60;4.35;;;;;;;17.33;83.38;99111.70;1815380;77;21061;-79
2022/07/10 01:53:47;;;;;;;5.15;4.60;;;;;;;17.25;83.57;99117.67;1796068;78;21060;-78
2022/07/10 01:56:15;;;;;;;5.90;4.35;;;;;;;17.20;83.73;99118.05;1806698;78;21043;-77
2022/07/10 01:58:41;;;;;;;7.20;4.75;;;;;;;17.18;83.84;99112.09;1823397;78;21180;-76
2022/07/10 02:01:10;;;;;;;7.65;4.60;;;;;;;17.26;83.66;99115.80;1823593;78;20981;-77
2022/07/10 02:06:22;;;;;;;4.92;4.28;;;;;;;17.14;83.93;99117.63;1793948;78;21615;-76
2022/07/10 02:08:48;;;;;;;8.18;4.55;;;;;;;17.06;84.11;99112.85;1745351;80;21088;-77
2022/07/10 02:11:15;;;;;;;6.33;4.47;;;;;;;17.08;84.18;99112.64;1746146;80;22181;-78
2022/07/10 02:13:41;;;;;;;5.92;4.37;;;;;;;17.12;84.10;99104.95;1758062;81;21528;-77
2022/07/10 02:16:08;;;;;;;5.83;4.58;;;;;;;17.03;84.35;99111.95;1717638;83;21051;-76
2022/07/10 02:18:35;;;;;;;5.15;4.62;;;;;;;16.93;84.80;99111.67;1761781;81;20997;-76
2022/07/10 02:21:02;;;;;;;5.67;4.20;;;;;;;16.83;85.09;99110.05;1763795;80;21024;-76
2022/07/10 02:23:29;;;;;;;6.75;4.53;;;;;;;16.84;85.24;99107.65;1740847;81;21338;-76
2022/07/10 02:25:55;;;;;;;6.65;4.08;;;;;;;16.93;85.25;99106.84;1764941;80;21041;-78
2022/07/10 02:28:22;;;;;;;6.20;4.55;;;;;;;16.91;85.38;99105.71;1731870;81;21057;-79
2022/07/10 02:30:49;;;;;;;5.33;4.83;;;;;;;16.87;85.61;99105.34;1778579;80;21022;-77
2022/07/10 02:33:16;;;;;;;8.53;4.37;;;;;;;16.80;85.72;99101.06;1781751;80;21009;-77
2022/07/10 02:35:42;;;;;;;5.62;4.28;;;;;;;16.84;85.73;99100.94;1764769;80;21993;-80
2022/07/10 02:38:09;;;;;;;6.22;5.15;;;;;;;16.89;85.68;99102.44;1780776;80;21049;-75
2022/07/10 02:40:35;;;;;;;7.10;4.85;;;;;;;16.85;85.84;99097.23;1781979;80;21018;-76
2022/07/10 02:43:02;;;;;;;7.80;5.05;;;;;;;16.81;85.97;99090.12;1731720;80;21046;-75
2022/07/10 02:45:28;;;;;;;7.05;4.45;;;;;;;16.83;85.92;99096.11;1752418;80;21041;-76
2022/07/10 02:47:55;;;;;;;6.35;4.97;;;;;;;16.91;85.80;99089.62;1743207;81;21773;-74
2022/07/10 02:50:22;;;;;;;8.40;5.62;;;;;;;16.90;85.79;99086.63;1751983;80;21029;-76
2022/07/10 02:52:49;;;;;;;8.75;5.60;;;;;;;16.84;85.81;99083.01;1748429;81;21105;-77
2022/07/10 02:55:16;;;;;;;11.80;5.47;;;;;;;16.79;85.86;99078.80;1751449;80;20994;-76
2022/07/10 02:57:42;;;;;;;7.28;5.35;;;;;;;16.84;85.77;99083.01;1782563;80;21060;-78
2022/07/10 03:00:11;;;;;;;8.98;6.05;;;;;;;16.94;85.60;99085.16;1752743;81;21308;-78
2022/07/10 03:02:38;;;;;;;8.58;5.72;;;;;;;16.94;85.57;99085.16;1744765;81;21013;-79
2022/07/10 03:05:07;;;;;;;8.68;4.90;;;;;;;16.90;85.58;99082.10;1742754;80;21058;-79
2022/07/10 03:07:34;;;;;;;10.25;5.60;;;;;;;16.85;85.73;99087.84;1751292;81;21045;-78
2022/07/10 03:10:00;;;;;;;8.03;5.30;;;;;;;16.89;85.73;99091.17;1758457;81;20970;-78
2022/07/10 03:12:27;;;;;;;6.53;5.25;;;;;;;16.94;85.66;99082.47;1761199;81;21324;-76
2022/07/10 03:14:53;;;;;;;6.50;5.72;;;;;;;16.92;85.77;99084.56;1815158;77;21030;-77
2022/07/10 03:17:20;;;;;;;7.10;5.20;;;;;;;16.90;85.83;99089.30;1793455;77;21037;-77
2022/07/10 03:19:47;;;;;;;5.72;4.67;;;;;;;16.89;85.90;99090.36;1738174;80;22254;-79
2022/07/10 03:22:14;;;;;;;9.50;5.42;;;;;;;16.95;85.65;99080.06;1736439;81;21040;-78
2022/07/10 03:24:42;;;;;;;5.90;5.20;;;;;;;17.06;85.27;99093.26;1766838;78;21246;-77
2022/07/10 03:27:09;;;;;;;5.25;4.75;;;;;;;17.04;85.20;99086.77;1778057;80;21052;-79
2022/07/10 03:29:35;;;;;;;6.53;4.47;;;;;;;17.06;85.10;99082.00;1786189;80;21050;-78
2022/07/10 03:32:04;;;;;;;8.03;4.53;;;;;;;17.17;84.87;99083.61;1756328;80;21049;-77
2022/07/10 03:34:33;;;;;;;5.17;4.65;;;;;;;17.32;84.35;99082.67;1755246;80;21053;-79
2022/07/10 03:37:00;;;;;;;5.95;5.35;;;;;;;17.36;83.89;99076.33;1762331;81;21162;-78
2022/07/10 03:39:27;;;;;;;7.12;5.17;;;;;;;17.38;83.77;99083.62;1759069;79;21026;-76
2022/07/10 03:41:53;;;;;;;5.37;4.35;;;;;;;17.40;83.66;99087.74;1769740;81;21096;-76
2022/07/10 03:44:20;;;;;;;6.75;4.10;;;;;;;17.51;83.45;99090.16;1741985;81;21065;-79
2022/07/10 03:46:46;;;;;;;7.35;5.53;;;;;;;17.65;82.87;99094.30;1771666;80;21017;-77
2022/07/10 03:49:13;;;;;;;6.33;5.20;;;;;;;17.67;82.71;99100.25;1746544;80;21241;-77
2022/07/10 03:51:39;;;;;;;6.15;4.80;;;;;;;17.68;82.61;99097.84;1778453;80;20998;-79
2022/07/10 03:54:06;;;;;;;6.45;4.65;;;;;;;17.70;82.30;99098.96;1755838;81;21057;-78
2022/07/10 03:59:18;;;;;;;7.85;5.62;;;;;;;17.88;81.84;99102.92;1766622;81;21185;-79
2022/07/10 04:01:44;;;;;;;8.08;5.80;;;;;;;17.88;81.85;99093.52;1787454;80;21482;-77
2022/07/10 04:04:11;;;;;;;6.53;5.70;;;;;;;17.87;81.82;99101.30;1762950;81;21068;-77
2022/07/10 04:06:38;;;;;;;6.00;4.87;;;;;;;17.85;81.89;99098.56;1771136;80;21025;-75
2022/07/10 04:09:05;;;;;;;8.20;5.10;;;;;;;17.93;81.71;99095.53;1775510;79;21068;-79
2022/07/10 04:11:32;;;;;;;7.37;5.58;;;;;;;18.04;81.53;99095.23;1765484;80;21205;-76
2022/07/10 04:13:59;;;;;;;6.87;5.37;;;;;;;18.08;81.16;99091.05;1743746;81;21126;-78
2022/07/10 04:16:26;;;;;;;6.55;5.55;;;;;;;18.07;80.97;99084.84;1825141;77;21006;-76
2022/07/10 04:18:54;;;;;;;7.75;5.37;;;;;;;18.07;80.80;99080.00;1807606;78;21049;-78
2022/07/10 04:21:21;;;;;;;7.80;4.95;;;;;;;18.09;80.47;99083.27;1741997;81;21080;-76
2022/07/10 04:23:47;;;;;;;8.70;5.80;;;;;;;18.19;80.04;99085.38;1821583;78;21037;-77
2022/07/10 04:26:14;;;;;;;6.15;5.50;;;;;;;18.28;79.71;99086.13;1812652;77;21602;-79
2022/07/10 04:28:41;;;;;;;8.85;6.25;;;;;;;18.29;79.45;99081.56;1795681;78;22025;-76
2022/07/10 04:31:07;;;;;;;6.25;5.65;;;;;;;18.25;79.43;99085.27;1767792;80;21561;-75
2022/07/10 04:33:34;;;;;;;7.47;6.10;;;;;;;18.24;79.37;99084.96;1760723;80;20986;-74
2022/07/10 04:36:01;;;;;;;9.20;5.20;;;;;;;18.26;79.38;99085.55;1748313;81;21060;-76
2022/07/10 04:38:27;;;;;;;6.80;5.37;;;;;;;18.40;79.04;99085.31;1768557;80;21303;-77
2022/07/10 04:40:53;;;;;;;6.95;5.62;;;;;;;18.64;78.50;99081.54;1774547;80;21034;-77
2022/07/10 04:43:20;;;;;;;6.80;5.87;;;;;;;18.81;77.84;99080.81;1762037;81;21642;-77
2022/07/10 04:45:47;;;;;;;5.58;4.80;;;;;;;18.94;77.45;99081.08;1797171;78;21552;-76
2022/07/10 04:48:13;;;;;;;6.62;5.90;;;;;;;19.04;76.89;99085.31;1816583;78;20999;-78
2022/07/10 04:50:41;;;;;;;6.28;5.40;;;;;;;19.14;76.70;99070.72;1811919;78;21017;-77
2022/07/10 04:53:08;;;;;;;5.65;4.55;;;;;;;19.30;76.47;99075.05;1755658;80;21003;-78
2022/07/10 04:55:35;;;;;;;6.87;5.30;;;;;;;19.49;75.69;99079.67;1733565;81;21096;-77
2022/07/10 04:58:01;;;;;;;5.80;5.20;;;;;;;19.68;75.39;99078.92;1748589;81;21084;-79
2022/07/10 05:00:28;;;;;;;8.10;4.78;;;;;;;19.77;74.73;99076.95;1742023;81;21046;-77
2022/07/10 05:02:55;;;;;;;5.33;4.65;;;;;;;19.81;74.36;99086.19;1763339;80;21160;-74
2022/07/10 05:05:22;;;;;;;7.03;4.75;;;;;;;19.88;73.94;99087.92;1799402;78;21082;-77
2022/07/10 05:07:48;;;;;;;5.65;4.87;;;;;;;20.01;73.75;99084.88;1796083;78;21043;-76
2022/07/10 05:10:15;;;;;;;5.83;5.17;;;;;;;20.15;72.97;99084.03;1800393;78;21005;-76
2022/07/10 05:12:41;;;;;;;6.90;4.67;;;;;;;20.23;72.18;99087.11;1754778;81;21029;-76
2022/07/10 05:15:09;;;;;;;7.12;4.50;;;;;;;20.31;72.18;99094.50;1762210;80;21232;-76
2022/07/10 05:17:36;;;;;;;5.95;4.30;;;;;;;20.39;72.29;99084.63;1775905;80;20998;-75
2022/07/10 05:20:02;;;;;;;5.72;3.77;;;;;;;20.55;71.66;99085.66;1778652;80;21023;-74
2022/07/10 05:22:30;;;;;;;5.00;4.12;;;;;;;20.72;70.54;99077.55;1733185;80;21128;-74
2022/07/10 05:24:57;;;;;;;4.40;3.80;;;;;;;20.77;70.15;99074.38;1783770;80;20998;-75
2022/07/10 05:27:25;;;;;;;4.87;4.37;;;;;;;20.78;69.87;99073.84;1776553;80;21475;-74
2022/07/10 05:29:52;;;;;;;4.50;3.90;;;;;;;20.80;70.03;99077.94;1771264;80;21104;-77
2022/07/10 05:32:21;;;;;;;5.55;4.10;;;;;;;20.84;69.51;99077.41;1773414;80;21099;-78
2022/07/10 05:34:48;;;;;;;5.53;3.67;;;;;;;20.80;69.62;99069.00;1780596;80;20967;-79
2022/07/10 05:37:15;;;;;;;5.08;4.17;;;;;;;20.74;69.31;99067.31;1779624;80;21086;-78
2022/07/10 05:39:41;;;;;;;6.37;4.03;;;;;;;20.67;69.66;99074.77;1759629;80;21121;-78
2022/07/10 05:42:09;;;;;;;4.83;4.00;;;;;;;20.60;69.65;99082.52;1770928;80;21514;-76
2022/07/10 05:44:36;;;;;;;4.42;3.98;;;;;;;20.55;70.07;99077.55;1773203;79;21111;-75
2022/07/10 05:47:03;;;;;;;4.90;3.55;;;;;;;20.50;69.99;99079.66;1776066;78;21026;-74
2022/07/10 05:49:32;;;;;;;3.95;3.47;;;;;;;20.51;70.02;99075.89;1782793;80;21022;-77
2022/07/10 05:51:58;;;;;;;4.08;3.67;;;;;;;20.53;69.96;99075.13;1752640;80;21198;-77
2022/07/10 05:54:25;;;;;;;5.05;3.20;;;;;;;20.66;69.88;99066.41;1767053;80;21039;-78
2022/07/10 05:56:51;;;;;;;4.80;3.22;;;;;;;20.80;69.73;99059.55;1743982;80;21045;-77
2022/07/10 05:59:18;;;;;;;6.55;3.77;;;;;;;20.87;69.34;99074.22;1782012;80;21085;-77
2022/07/10 06:01:45;;;;;;;4.10;3.77;;;;;;;20.91;69.24;99066.70;1751250;79;21065;-78
2022/07/10 06:04:12;;;;;;;6.25;3.72;;;;;;;20.95;69.13;99067.83;1745980;81;21171;-78
2022/07/10 06:06:38;;;;;;;6.17;4.05;;;;;;;21.02;69.07;99067.66;1765803;80;21013;-77
2022/07/10 06:09:05;;;;;;;5.42;3.75;;;;;;;21.10;68.73;99059.64;1757670;80;21092;-76
2022/07/10 06:11:31;;;;;;;6.65;4.10;;;;;;;21.10;68.34;99059.09;1740134;81;21021;-76
2022/07/10 06:13:58;;;;;;;6.20;4.17;;;;;;;21.11;68.61;99058.55;1754244;80;21115;-78
2022/07/10 06:16:25;;;;;;;4.70;3.83;;;;;;;21.12;68.71;99057.50;1763048;80;21594;-79
2022/07/10 06:18:52;;;;;;;4.87;3.70;;;;;;;21.14;68.39;99064.27;1814399;77;21620;-78
2022/07/10 06:21:21;;;;;;;4.87;3.92;;;;;;;21.15;68.09;99067.77;1771364;78;21030;-76
2022/07/10 06:23:47;;;;;;;5.10;3.50;;;;;;;21.12;67.93;99067.75;1798183;78;21071;-78
2022/07/10 06:26:14;;;;;;;5.35;3.75;;;;;;;21.13;67.98;99061.81;1810370;77;21481;-77
2022/07/10 06:28:40;;;;;;;5.15;4.47;;;;;;;21.17;68.07;99062.93;1811310;78;21090;-76
2022/07/10 06:31:08;;;;;;;3.95;3.65;;;;;;;21.25;67.89;99061.14;1760024;80;21044;-78
2022/07/10 06:36:31;;;;;;;4.10;3.70;;;;;;;21.61;67.26;99060.14;1856074;75;22599;-79
2022/07/10 06:38:58;;;;;;;4.90;4.33;;;;;;;21.72;67.31;99057.81;1826907;77;21033;-79
2022/07/10 06:41:24;;;;;;;5.08;4.22;;;;;;;21.91;66.97;99054.72;1848708;77;22200;-80
2022/07/10 06:43:50;;;;;;;4.50;4.10;;;;;;;22.10;66.28;99059.19;1839199;77;21033;-80
2022/07/10 06:46:17;;;;;;;7.15;3.80;;;;;;;22.23;65.78;99060.05;1840227;77;20990;-78
2022/07/10 06:48:44;;;;;;;5.05;3.87;;;;;;;22.40;65.52;99065.88;1830252;77;21013;-75
2022/07/10 06:51:10;;;;;;;4.50;3.72;;;;;;;22.58;65.27;99067.60;1844792;77;21443;-78
2022/07/10 06:53:38;;;;;;;4.35;3.95;;;;;;;22.80;64.39;99067.16;1815014;77;21172;-79
2022/07/10 06:56:06;;;;;;;5.33;4.33;;;;;;;22.96;64.29;99057.99;1838790;77;20932;-77
2022/07/10 06:58:33;;;;;;;5.85;4.40;;;;;;;23.10;63.79;99059.16;1827220;77;21526;-77
2022/07/10 07:01:01;;;;;;;4.42;3.92;;;;;;;23.20;63.52;99052.11;1820480;77;21056;-77
2022/07/10 07:03:29;;;;;;;3.90;3.60;;;;;;;23.29;62.75;99047.80;1846073;77;21048;-78
2022/07/10 07:05:55;;;;;;;5.72;4.25;;;;;;;23.33;62.67;99056.50;1845403;77;21154;-77
2022/07/10 07:08:22;;;;;;;5.20;4.65;;;;;;;23.33;62.73;99055.66;1839336;77;21077;-78
2022/07/10 07:10:49;;;;;;;5.37;4.00;;;;;;;23.35;62.90;99050.78;1804328;77;21072;-78
2022/07/10 07:13:15;;;;;;;4.53;4.05;;;;;;;23.40;62.96;99047.29;1830248;77;21065;-78
2022/07/10 07:15:46;;;;;;;5.28;4.78;;;;;;;23.42;62.73;99047.28;1846348;77;21033;-79
2022/07/10 07:18:15;;;;;;;6.05;4.42;;;;;;;23.50;62.51;99043.22;1847193;77;21930;-76
2022/07/10 07:23:28;;;;;;;5.35;4.55;;;;;;;23.65;62.19;99038.36;1828483;77;20990;-77
2022/07/10 07:25:55;;;;;;;4.90;4.50;;;;;;;23.76;62.21;99039.98;1822314;77;21649;-77
2022/07/10 07:28:23;;;;;;;6.35;4.67;;;;;;;23.87;61.94;99038.09;1822505;77;21033;-79
2022/07/10 07:30:50;;;;;;;9.00;5.28;;;;;;;23.98;61.76;99039.71;1821760;77;21100;-79
2022/07/10 07:33:16;;;;;;;5.45;4.33;;;;;;;24.13;61.24;99035.62;1838055;77;21000;-77
2022/07/10 07:35:43;;;;;;;5.08;4.58;;;;;;;24.24;60.97;99034.23;1841609;77;21067;-80
2022/07/10 07:38:10;;;;;;;4.70;4.22;;;;;;;24.29;60.86;99036.39;1813920;77;20990;-78
2022/07/10 07:40:39;;;;;;;3.92;3.62;;;;;;;24.33;60.63;99032.58;1824285;77;20995;-79
2022/07/10 07:43:06;;;;;;;4.67;4.20;;;;;;;24.38;60.65;99031.73;1838224;77;21870;-79
2022/07/10 07:45:33;;;;;;;5.65;5.05;;;;;;;24.44;60.64;99036.09;1815542;77;21043;-80
2022/07/10 07:47:59;;;;;;;5.47;4.17;;;;;;;24.51;60.25;99035.26;1774106;80;21057;-78
2022/07/10 07:50:29;;;;;;;4.70;4.25;;;;;;;24.55;60.20;99035.00;1821659;77;20990;-75
2022/07/10 07:52:56;;;;;;;4.97;4.47;;;;;;;24.59;60.14;99029.80;1813813;78;21025;-75
2022/07/10 07:55:23;;;;;;;6.80;4.15;;;;;;;24.62;60.04;99033.33;1814691;77;21524;-75
2022/07/10 07:57:53;;;;;;;6.00;4.65;;;;;;;24.65;59.92;99031.42;1784099;78;21000;-75
2022/07/10 08:00:22;;;;;;;5.75;4.30;;;;;;;24.65;59.70;99025.44;1825812;78;21077;-75
2022/07/10 08:02:50;;;;;;;4.67;4.03;;;;;;;24.65;59.77;99032.78;1777815;78;21104;-76
2022/07/10 08:05:16;;;;;;;4.87;3.85;;;;;;;24.67;59.65;99035.48;1808395;77;21064;-74
2022/07/10 08:07:46;;;;;;;6.60;3.90;;;;;;;24.74;59.29;99033.80;1826570;78;21258;-76
2022/07/10 08:10:18;;;;;;;4.42;3.98;;;;;;;24.79;59.40;99030.27;1823541;78;21049;-74
2022/07/10 08:12:46;;;;;;;5.58;3.60;;;;;;;24.84;59.24;99028.34;1818609;77;21036;-74
2022/07/10 08:15:15;;;;;;;4.42;4.03;;;;;;;24.85;59.15;99027.23;1825868;77;20989;-74
2022/07/10 08:17:45;;;;;;;4.87;3.40;;;;;;;24.91;59.10;99023.95;1815694;78;21087;-75
2022/07/10 08:20:12;;;;;;;5.92;4.28;;;;;;;25.01;58.98;99022.52;1787578;78;21150;-74
2022/07/10 08:22:42;;;;;;;3.75;3.37;;;;;;;25.09;58.74;99029.27;1828791;77;20990;-75
2022/07/10 08:25:10;;;;;;;4.72;4.30;;;;;;;25.16;58.64;99031.14;1833512;77;21561;-75
2022/07/10 08:27:37;;;;;;;4.67;4.28;;;;;;;25.24;58.19;99029.20;1827511;78;21034;-76
2022/07/10 08:30:05;;;;;;;5.17;3.62;;;;;;;25.29;57.91;99022.38;1806296;77;21017;-76
2022/07/10 08:32:32;;;;;;;4.53;4.05;;;;;;;25.28;57.63;99020.78;1825560;77;21120;-75
2022/07/10 08:34:59;;;;;;;4.87;3.50;;;;;;;25.29;57.45;99021.58;1822384;77;21045;-76
2022/07/10 08:37:27;;;;;;;4.70;3.15;;;;;;;25.34;57.54;99025.60;1830387;77;21014;-75
2022/07/10 08:39:53;;;;;;;3.00;2.72;;;;;;;25.40;56.24;99022.30;1814415;77;21033;-74
2022/07/10 08:42:21;;;;;;;3.60;3.15;;;;;;;25.44;55.03;99026.07;1827042;77;21041;-76
2022/07/10 08:44:47;;;;;;;5.28;3.10;;;;;;;25.50;54.95;99023.05;1822269;77;21592;-73
2022/07/10 08:47:14;;;;;;;3.70;3.12;;;;;;;25.60;54.49;99019.43;1830287;77;21073;-74
2022/07/10 08:49:48;;;;;;;3.50;3.20;;;;;;;25.69;54.59;99019.61;1834879;77;21052;-74
2022/07/10 08:52:27;;;;;;;3.35;3.05;;;;;;;25.80;54.66;99017.63;1813606;77;21068;-76
2022/07/10 08:54:55;;;;;;;3.92;2.90;;;;;;;25.88;54.38;99013.75;1839053;77;21032;-74
2022/07/10 08:57:23;;;;;;;3.30;3.00;;;;;;;26.02;54.03;99017.98;1818303;77;21355;-73
2022/07/10 08:59:50;;;;;;;4.10;2.98;;;;;;;26.16;53.63;99014.03;1787387;77;21509;-73
2022/07/10 09:02:17;;;;;;;4.87;2.95;;;;;;;26.43;53.35;99010.73;1826600;77;21538;-74
2022/07/10 09:04:45;;;;;;;3.37;3.10;;;;;;;26.75;52.75;99012.54;1832734;77;21005;-74
2022/07/10 09:07:11;;;;;;;3.65;3.10;;;;;;;27.00;52.32;99012.17;1821435;77;21339;-75
2022/07/10 09:09:57;;;;;;;3.37;3.08;;;;;;;27.16;51.92;99005.97;1819850;77;21066;-76
2022/07/10 09:12:24;;;;;;;6.15;3.15;;;;;;;27.33;51.70;99008.17;1831824;77;21069;-76
2022/07/10 09:14:51;;;;;;;3.77;2.75;;;;;;;27.52;51.36;98999.97;1821299;77;21069;-74
2022/07/10 09:17:18;;;;;;;2.70;2.50;;;;;;;27.78;50.98;98996.82;1820424;77;21295;-76
2022/07/10 09:19:45;;;;;;;3.00;2.80;;;;;;;28.06;50.41;99005.07;1823654;77;21045;-75
2022/07/10 09:22:12;;;;;;;2.90;2.70;;;;;;;28.35;49.75;99000.68;1817917;77;21212;-73
2022/07/10 09:24:43;;;;;;;3.42;3.08;;;;;;;28.69;49.10;99000.27;1848051;77;21049;-74
2022/07/10 09:27:14;;;;;;;2.95;2.50;;;;;;;29.07;48.43;99004.09;1836013;77;21037;-74
2022/07/10 09:30:00;;;;;;;3.15;2.80;;;;;;;29.38;47.49;99000.09;1819579;77;21061;-76
2022/07/10 09:32:19;;;;;;;2.95;2.70;;;;;;;29.44;47.31;98994.48;1833219;77;21049;-73
2022/07/10 09:36:04;;;;;;;5.58;3.00;;;;;;;29.35;46.87;98994.44;1835863;77;21206;-74
2022/07/10 09:37:22;;;;;;;5.03;2.75;;;;;;;29.05;47.10;98988.52;1798096;78;21018;-74
2022/07/10 09:40:04;;;;;;;2.70;2.50;;;;;;;28.56;48.16;98996.44;1793077;79;21017;-73
2022/07/10 09:42:42;;;;;;;4.80;2.93;;;;;;;28.30;48.50;98987.95;1802529;79;21010;-75
2022/07/10 09:45:19;;;;;;;3.27;2.85;;;;;;;28.11;48.46;98992.13;1799777;79;20982;-74
2022/07/10 09:47:57;;;;;;;3.08;2.77;;;;;;;27.88;48.65;98994.46;1789290;79;21098;-73
2022/07/10 09:50:34;;;;;;;3.27;2.50;;;;;;;27.72;48.95;98989.81;1783443;78;21042;-74
2022/07/10 09:53:04;;;;;;;4.20;2.70;;;;;;;27.62;49.24;98987.53;1791727;79;21364;-74
2022/07/10 09:55:34;;;;;;;3.27;2.90;;;;;;;27.47;49.28;98986.43;1803111;79;21108;-74
2022/07/10 09:58:08;;;;;;;3.98;3.10;;;;;;;27.35;49.81;98992.89;1778804;79;21076;-75
2022/07/10 10:00:37;;;;;;;4.87;2.80;;;;;;;27.28;50.16;98990.55;1777671;79;21266;-74
2022/07/10 10:03:08;;;;;;;4.33;3.15;;;;;;;27.38;50.12;98975.94;1783083;78;21037;-74
2022/07/10 10:05:54;;;;;;;5.33;2.45;;;;;;;27.50;49.69;98981.73;1801495;79;21057;-74
2022/07/10 10:08:24;;;;;;;3.12;2.50;;;;;;;27.59;49.47;98979.14;1794846;79;21493;-74
2022/07/10 10:10:51;;;;;;;3.40;2.65;;;;;;;27.64;49.46;98979.86;1803210;77;21061;-73
2022/07/10 10:13:23;;;;;;;3.02;2.50;;;;;;;27.73;49.83;98981.89;1804906;79;21633;-74
2022/07/10 10:15:52;;;;;;;3.50;2.45;;;;;;;27.83;49.79;98976.23;1806583;79;21034;-74
2022/07/10 10:18:26;;;;;;;2.85;2.62;;;;;;;27.97;49.28;98981.21;1806205;79;21702;-74
2022/07/10 10:20:54;;;;;;;4.78;3.47;;;;;;;28.31;49.24;98975.89;1786203;79;21553;-72
2022/07/10 10:23:24;;;;;;;3.02;2.75;;;;;;;28.76;49.01;98977.98;1794570;79;21006;-74
2022/07/10 10:25:56;;;;;;;3.45;2.80;;;;;;;29.07;48.13;98970.45;1752260;80;21236;-73
2022/07/10 10:28:24;;;;;;;3.42;3.10;;;;;;;29.04;48.10;98971.89;1804611;79;21089;-73
2022/07/10 10:30:57;;;;;;;3.58;2.65;;;;;;;28.92;48.35;98971.63;1795445;78;21018;-72
2022/07/10 10:33:39;;;;;;;3.25;2.60;;;;;;;28.76;48.43;98973.34;1794079;79;21028;-73
2022/07/10 10:36:06;;;;;;;3.45;2.65;;;;;;;28.52;48.38;98970.05;1799673;77;21064;-74
2022/07/10 10:38:57;;;;;;;4.42;2.37;;;;;;;28.27;48.44;98969.98;1811575;77;21146;-73
2022/07/10 10:41:27;;;;;;;2.65;2.45;;;;;;;28.02;48.45;98969.38;1830418;77;21014;-74
2022/07/10 10:44:16;;;;;;;3.00;2.80;;;;;;;27.78;48.86;98968.17;1834687;77;21052;-72
2022/07/10 10:47:02;;;;;;;2.83;2.50;;;;;;;27.62;49.53;98961.62;1822027;77;21021;-74
2022/07/10 10:49:52;;;;;;;2.90;2.67;;;;;;;27.50;50.21;98959.11;1839909;77;21006;-73
2022/07/10 10:52:19;;;;;;;3.58;2.40;;;;;;;27.45;50.51;98954.56;1802367;77;22029;-73
2022/07/10 10:55:02;;;;;;;5.08;3.40;;;;;;;27.50;50.43;98952.28;1835371;77;21017;-74
2022/07/10 10:57:37;;;;;;;3.12;2.90;;;;;;;27.84;50.09;98956.84;1830379;77;21103;-74
2022/07/10 11:00:09;;;;;;;2.77;2.45;;;;;;;28.50;49.45;98951.76;1837063;77;21012;-73
2022/07/10 11:02:41;;;;;;;4.63;3.00;;;;;;;29.35;47.36;98940.52;1836324;77;21536;-72
2022/07/10 11:05:25;;;;;;;2.70;2.50;;;;;;;30.26;45.71;98934.27;1835365;77;22142;-72
2022/07/10 11:08:01;;;;;;;4.80;2.80;;;;;;;31.26;43.85;98934.55;1823145;77;21045;-72
2022/07/10 11:10:42;;;;;;;2.95;2.50;;;;;;;32.23;42.25;98929.79;1827424;77;21140;-72
2022/07/10 11:13:16;;;;;;;3.30;3.00;;;;;;;32.99;40.73;98924.41;1820661;77;20995;-73
2022/07/10 11:15:48;;;;;;;3.10;2.08;;;;;;;33.62;39.59;98924.29;1826128;77;21021;-74
2022/07/10 11:18:24;;;;;;;2.72;2.52;;;;;;;33.79;38.80;98922.73;1827387;77;21267;-73
2022/07/10 11:20:53;;;;;;;2.70;2.50;;;;;;;34.03;38.82;98920.55;1846942;77;21057;-74
2022/07/10 11:24:00;;;;;;;2.42;2.22;;;;;;;34.45;37.92;98922.27;1835799;77;21013;-75
2022/07/10 11:26:47;;;;;;;2.42;2.30;;;;;;;34.82;37.66;98923.58;1826947;77;21013;-73
2022/07/10 11:29:17;;;;;;;2.02;1.92;;;;;;;35.37;36.58;98922.53;1802865;77;21068;-73
2022/07/10 11:31:54;;;;;;;2.83;1.95;;;;;;;35.68;36.13;98914.91;1834999;77;21194;-74
2022/07/10 11:34:23;;;;;;;3.52;2.33;;;;;;;36.16;35.19;98905.16;1830440;77;20998;-75
2022/07/10 11:36:50;;;;;;;2.02;1.92;;;;;;;36.72;34.35;98913.75;1778592;78;21080;-74
2022/07/10 11:39:16;;;;;;;2.60;2.40;;;;;;;37.13;34.06;98915.59;1806808;78;21088;-74
2022/07/10 11:41:45;;;;;;;2.10;1.98;;;;;;;37.59;33.18;98910.07;1801454;78;21072;-73
2022/07/10 11:44:16;;;;;;;2.80;2.15;;;;;;;37.96;32.76;98915.08;1800398;78;21096;-74
2022/07/10 11:46:46;;;;;;;2.65;2.37;;;;;;;38.35;32.26;98911.52;1811946;78;26663;-73
2022/07/10 11:49:14;;;;;;;3.60;2.37;;;;;;;38.90;31.43;98909.65;1818235;78;21061;-74
2022/07/10 11:51:41;;;;;;;2.40;2.20;;;;;;;39.24;31.12;98913.83;1818087;78;21004;-72